sensor_id;sensor_type;location;lat;lon;timestamp;P1;durP1;ratioP1;P2;durP2;ratioP2
11681;SDS011;5897;42.640;23.310;2022-12-29T00:00:16;31.65;;;23.80;;
11681;SDS011;5897;42.640;23.310;2022-12-29T00:02:44;31.58;;;23.27;;
11681;SDS011;5897;42.640;23.310;2022-12-29T00:05:11;32.10;;;24.42;;
11681;SDS011;5897;42.640;23.310;2022-12-29T00:07:38;31.60;;;23.92;;
11681;SDS011;5897;42.640;23.310;2022-12-29T00:10:05;37.65;;;26.48;;
11681;SDS011;5897;42.640;23.310;2022-12-29T00:12:33;36.40;;;26.50;;
11681;SDS011;5897;42.640;23.310;2022-12-29T00:15:13;34.35;;;24.98;;
11681;SDS011;5897;42.640;23.310;2022-12-29T00:17:59;31.52;;;25.08;;
11681;SDS011;5897;42.640;23.310;2022-12-29T00:20:26;31.77;;;22.52;;
11681;SDS011;5897;42.640;23.310;2022-12-29T00:23:10;33.15;;;22.65;;
11681;SDS011;5897;42.640;23.310;2022-12-29T00:25:54;34.08;;;21.98;;
11681;SDS011;5897;42.640;23.310;2022-12-29T00:28:39;28.15;;;21.45;;
11681;SDS011;5897;42.640;23.310;2022-12-29T00:31:23;29.00;;;21.15;;
11681;SDS011;5897;42.640;23.310;2022-12-29T00:36:56;31.50;;;23.05;;
11681;SDS011;5897;42.640;23.310;2022-12-29T00:39:23;36.50;;;24.15;;
11681;SDS011;5897;42.640;23.310;2022-12-29T00:42:08;31.77;;;21.60;;
11681;SDS011;5897;42.640;23.310;2022-12-29T00:44:58;31.23;;;21.60;;
11681;SDS011;5897;42.640;23.310;2022-12-29T00:47:25;28.55;;;21.63;;
11681;SDS011;5897;42.640;23.310;2022-12-29T00:49:53;30.10;;;21.33;;
11681;SDS011;5897;42.640;23.310;2022-12-29T00:52:19;29.77;;;22.45;;
11681;SDS011;5897;42.640;23.310;2022-12-29T00:54:45;28.27;;;20.35;;
11681;SDS011;5897;42.640;23.310;2022-12-29T00:57:12;27.88;;;20.27;;
11681;SDS011;5897;42.640;23.310;2022-12-29T00:59:39;25.90;;;19.85;;
11681;SDS011;5897;42.640;23.310;2022-12-29T01:02:07;29.13;;;20.13;;
11681;SDS011;5897;42.640;23.310;2022-12-29T01:04:35;25.10;;;20.05;;
11681;SDS011;5897;42.640;23.310;2022-12-29T01:07:03;27.58;;;20.45;;
11681;SDS011;5897;42.640;23.310;2022-12-29T01:09:30;28.15;;;21.50;;
11681;SDS011;5897;42.640;23.310;2022-12-29T01:12:15;26.27;;;20.75;;
11681;SDS011;5897;42.640;23.310;2022-12-29T01:15:02;29.77;;;21.45;;
11681;SDS011;5897;42.640;23.310;2022-12-29T01:17:29;30.33;;;23.27;;
11681;SDS011;5897;42.640;23.310;2022-12-29T01:19:56;33.28;;;24.38;;
11681;SDS011;5897;42.640;23.310;2022-12-29T01:22:24;34.05;;;24.33;;
11681;SDS011;5897;42.640;23.310;2022-12-29T01:24:51;33.03;;;24.40;;
11681;SDS011;5897;42.640;23.310;2022-12-29T01:27:17;30.77;;;22.27;;
11681;SDS011;5897;42.640;23.310;2022-12-29T01:29:44;29.40;;;22.88;;
11681;SDS011;5897;42.640;23.310;2022-12-29T01:32:11;33.92;;;25.05;;
11681;SDS011;5897;42.640;23.310;2022-12-29T01:34:38;34.50;;;24.17;;
11681;SDS011;5897;42.640;23.310;2022-12-29T01:37:05;34.10;;;24.52;;
11681;SDS011;5897;42.640;23.310;2022-12-29T01:39:33;35.47;;;23.45;;
11681;SDS011;5897;42.640;23.310;2022-12-29T01:41:59;31.52;;;23.48;;
11681;SDS011;5897;42.640;23.310;2022-12-29T01:44:46;30.85;;;23.73;;
11681;SDS011;5897;42.640;23.310;2022-12-29T01:47:18;35.33;;;24.98;;
11681;SDS011;5897;42.640;23.310;2022-12-29T01:49:52;34.22;;;24.38;;
11681;SDS011;5897;42.640;23.310;2022-12-29T01:52:20;32.00;;;24.60;;
11681;SDS011;5897;42.640;23.310;2022-12-29T01:54:52;31.90;;;24.80;;
11681;SDS011;5897;42.640;23.310;2022-12-29T01:57:23;37.42;;;25.80;;
11681;SDS011;5897;42.640;23.310;2022-12-29T01:59:53;31.88;;;25.13;;
11681;SDS011;5897;42.640;23.310;2022-12-29T02:02:24;33.40;;;25.27;;
11681;SDS011;5897;42.640;23.310;2022-12-29T02:04:51;35.63;;;25.88;;
11681;SDS011;5897;42.640;23.310;2022-12-29T02:07:22;32.72;;;25.55;;
11681;SDS011;5897;42.640;23.310;2022-12-29T02:09:54;35.85;;;26.42;;
11681;SDS011;5897;42.640;23.310;2022-12-29T02:12:22;35.83;;;27.02;;
11681;SDS011;5897;42.640;23.310;2022-12-29T02:14:50;35.38;;;26.08;;
11681;SDS011;5897;42.640;23.310;2022-12-29T02:17:23;34.05;;;27.00;;
11681;SDS011;5897;42.640;23.310;2022-12-29T02:23:07;34.13;;;25.05;;
11681;SDS011;5897;42.640;23.310;2022-12-29T02:26:09;36.80;;;26.40;;
11681;SDS011;5897;42.640;23.310;2022-12-29T02:28:57;35.38;;;26.67;;
11681;SDS011;5897;42.640;23.310;2022-12-29T02:31:40;32.90;;;24.77;;
11681;SDS011;5897;42.640;23.310;2022-12-29T02:34:15;34.70;;;25.80;;
11681;SDS011;5897;42.640;23.310;2022-12-29T02:36:51;33.00;;;25.50;;
11681;SDS011;5897;42.640;23.310;2022-12-29T02:39:34;35.67;;;26.23;;
11681;SDS011;5897;42.640;23.310;2022-12-29T02:42:08;34.92;;;25.98;;
11681;SDS011;5897;42.640;23.310;2022-12-29T02:44:42;34.58;;;24.95;;
11681;SDS011;5897;42.640;23.310;2022-12-29T02:47:21;32.15;;;24.85;;
11681;SDS011;5897;42.640;23.310;2022-12-29T02:49:57;32.75;;;24.92;;
11681;SDS011;5897;42.640;23.310;2022-12-29T02:52:30;32.85;;;24.05;;
11681;SDS011;5897;42.640;23.310;2022-12-29T02:55:00;31.38;;;24.23;;
11681;SDS011;5897;42.640;23.310;2022-12-29T02:57:30;32.17;;;25.05;;
11681;SDS011;5897;42.640;23.310;2022-12-29T03:00:01;33.67;;;24.75;;
11681;SDS011;5897;42.640;23.310;2022-12-29T03:05:40;33.53;;;25.20;;
11681;SDS011;5897;42.640;23.310;2022-12-29T03:08:28;33.03;;;25.13;;
11681;SDS011;5897;42.640;23.310;2022-12-29T03:11:01;32.90;;;24.98;;
11681;SDS011;5897;42.640;23.310;2022-12-29T03:13:32;31.67;;;24.05;;
11681;SDS011;5897;42.640;23.310;2022-12-29T03:16:23;33.40;;;25.25;;
11681;SDS011;5897;42.640;23.310;2022-12-29T03:18:57;30.02;;;24.17;;
11681;SDS011;5897;42.640;23.310;2022-12-29T03:21:30;32.42;;;25.42;;
11681;SDS011;5897;42.640;23.310;2022-12-29T03:24:18;32.92;;;24.90;;
11681;SDS011;5897;42.640;23.310;2022-12-29T03:26:48;33.42;;;26.42;;
11681;SDS011;5897;42.640;23.310;2022-12-29T03:29:19;31.13;;;24.98;;
11681;SDS011;5897;42.640;23.310;2022-12-29T03:31:47;30.88;;;24.33;;
11681;SDS011;5897;42.640;23.310;2022-12-29T03:34:17;30.13;;;24.73;;
11681;SDS011;5897;42.640;23.310;2022-12-29T03:36:47;30.38;;;23.95;;
11681;SDS011;5897;42.640;23.310;2022-12-29T03:39:17;30.60;;;24.35;;
11681;SDS011;5897;42.640;23.310;2022-12-29T03:41:47;32.33;;;24.65;;
11681;SDS011;5897;42.640;23.310;2022-12-29T03:44:17;32.78;;;25.13;;
11681;SDS011;5897;42.640;23.310;2022-12-29T03:46:44;32.05;;;24.17;;
11681;SDS011;5897;42.640;23.310;2022-12-29T03:49:10;34.53;;;27.42;;
11681;SDS011;5897;42.640;23.310;2022-12-29T03:51:39;34.47;;;26.33;;
11681;SDS011;5897;42.640;23.310;2022-12-29T03:54:05;35.03;;;26.08;;
11681;SDS011;5897;42.640;23.310;2022-12-29T03:56:32;30.63;;;24.75;;
11681;SDS011;5897;42.640;23.310;2022-12-29T03:58:59;30.98;;;24.35;;
11681;SDS011;5897;42.640;23.310;2022-12-29T04:01:26;30.52;;;24.83;;
11681;SDS011;5897;42.640;23.310;2022-12-29T04:03:52;31.95;;;25.90;;
11681;SDS011;5897;42.640;23.310;2022-12-29T04:06:19;31.33;;;26.27;;
11681;SDS011;5897;42.640;23.310;2022-12-29T04:08:47;36.40;;;27.08;;
11681;SDS011;5897;42.640;23.310;2022-12-29T04:11:14;36.58;;;26.90;;
11681;SDS011;5897;42.640;23.310;2022-12-29T04:13:41;34.15;;;26.95;;
11681;SDS011;5897;42.640;23.310;2022-12-29T04:16:08;34.55;;;27.60;;
11681;SDS011;5897;42.640;23.310;2022-12-29T04:18:35;36.75;;;27.05;;
11681;SDS011;5897;42.640;23.310;2022-12-29T04:21:01;34.70;;;26.33;;
11681;SDS011;5897;42.640;23.310;2022-12-29T04:23:29;35.80;;;26.85;;
11681;SDS011;5897;42.640;23.310;2022-12-29T04:25:58;33.60;;;26.40;;
11681;SDS011;5897;42.640;23.310;2022-12-29T04:28:26;37.70;;;26.77;;
11681;SDS011;5897;42.640;23.310;2022-12-29T04:30:53;34.60;;;26.75;;
11681;SDS011;5897;42.640;23.310;2022-12-29T04:33:20;34.85;;;27.20;;
11681;SDS011;5897;42.640;23.310;2022-12-29T04:35:48;35.95;;;27.33;;
11681;SDS011;5897;42.640;23.310;2022-12-29T04:38:15;33.38;;;27.50;;
11681;SDS011;5897;42.640;23.310;2022-12-29T04:40:42;32.90;;;25.23;;
11681;SDS011;5897;42.640;23.310;2022-12-29T04:43:11;34.10;;;26.65;;
11681;SDS011;5897;42.640;23.310;2022-12-29T04:45:38;35.22;;;27.00;;
11681;SDS011;5897;42.640;23.310;2022-12-29T04:48:05;32.97;;;26.77;;
11681;SDS011;5897;42.640;23.310;2022-12-29T04:50:32;31.00;;;26.13;;
11681;SDS011;5897;42.640;23.310;2022-12-29T04:52:59;33.85;;;25.92;;
11681;SDS011;5897;42.640;23.310;2022-12-29T04:55:26;33.53;;;25.15;;
11681;SDS011;5897;42.640;23.310;2022-12-29T04:57:53;33.50;;;25.40;;
11681;SDS011;5897;42.640;23.310;2022-12-29T05:00:21;31.05;;;25.92;;
11681;SDS011;5897;42.640;23.310;2022-12-29T05:02:48;36.28;;;26.85;;
11681;SDS011;5897;42.640;23.310;2022-12-29T05:05:15;29.35;;;25.13;;
11681;SDS011;5897;42.640;23.310;2022-12-29T05:07:43;31.80;;;25.02;;
11681;SDS011;5897;42.640;23.310;2022-12-29T05:10:10;34.03;;;25.95;;
11681;SDS011;5897;42.640;23.310;2022-12-29T05:12:37;34.72;;;25.67;;
11681;SDS011;5897;42.640;23.310;2022-12-29T05:15:06;31.27;;;25.35;;
11681;SDS011;5897;42.640;23.310;2022-12-29T05:17:35;32.88;;;25.30;;
11681;SDS011;5897;42.640;23.310;2022-12-29T05:20:03;29.00;;;23.98;;
11681;SDS011;5897;42.640;23.310;2022-12-29T05:22:30;31.45;;;24.05;;
11681;SDS011;5897;42.640;23.310;2022-12-29T05:24:57;33.38;;;25.73;;
11681;SDS011;5897;42.640;23.310;2022-12-29T05:27:24;31.83;;;25.58;;
11681;SDS011;5897;42.640;23.310;2022-12-29T05:29:50;38.75;;;28.80;;
11681;SDS011;5897;42.640;23.310;2022-12-29T05:32:17;35.60;;;25.23;;
11681;SDS011;5897;42.640;23.310;2022-12-29T05:34:46;33.92;;;25.73;;
11681;SDS011;5897;42.640;23.310;2022-12-29T05:37:13;31.83;;;25.40;;
11681;SDS011;5897;42.640;23.310;2022-12-29T05:39:40;35.85;;;26.73;;
11681;SDS011;5897;42.640;23.310;2022-12-29T05:42:07;35.03;;;26.83;;
11681;SDS011;5897;42.640;23.310;2022-12-29T05:44:34;37.55;;;26.50;;
11681;SDS011;5897;42.640;23.310;2022-12-29T05:47:00;34.58;;;27.38;;
11681;SDS011;5897;42.640;23.310;2022-12-29T05:49:27;37.65;;;28.38;;
11681;SDS011;5897;42.640;23.310;2022-12-29T05:51:55;35.28;;;27.67;;
11681;SDS011;5897;42.640;23.310;2022-12-29T05:54:22;39.90;;;28.40;;
11681;SDS011;5897;42.640;23.310;2022-12-29T05:56:49;39.95;;;28.98;;
11681;SDS011;5897;42.640;23.310;2022-12-29T05:59:16;36.38;;;27.25;;
11681;SDS011;5897;42.640;23.310;2022-12-29T06:01:43;39.45;;;26.67;;
11681;SDS011;5897;42.640;23.310;2022-12-29T06:04:09;38.20;;;27.40;;
11681;SDS011;5897;42.640;23.310;2022-12-29T06:06:36;38.65;;;28.25;;
11681;SDS011;5897;42.640;23.310;2022-12-29T06:09:05;33.83;;;26.58;;
11681;SDS011;5897;42.640;23.310;2022-12-29T06:11:32;36.00;;;27.05;;
11681;SDS011;5897;42.640;23.310;2022-12-29T06:13:58;34.75;;;25.83;;
11681;SDS011;5897;42.640;23.310;2022-12-29T06:16:25;32.22;;;25.80;;
11681;SDS011;5897;42.640;23.310;2022-12-29T06:18:53;29.80;;;24.05;;
11681;SDS011;5897;42.640;23.310;2022-12-29T06:21:19;30.88;;;24.40;;
11681;SDS011;5897;42.640;23.310;2022-12-29T06:23:46;31.52;;;24.90;;
11681;SDS011;5897;42.640;23.310;2022-12-29T06:26:14;29.88;;;23.55;;
11681;SDS011;5897;42.640;23.310;2022-12-29T06:28:41;30.83;;;24.42;;
11681;SDS011;5897;42.640;23.310;2022-12-29T06:31:08;29.27;;;22.90;;
11681;SDS011;5897;42.640;23.310;2022-12-29T06:33:36;28.33;;;23.05;;
11681;SDS011;5897;42.640;23.310;2022-12-29T06:36:03;31.10;;;25.45;;
11681;SDS011;5897;42.640;23.310;2022-12-29T06:38:30;28.90;;;24.02;;
11681;SDS011;5897;42.640;23.310;2022-12-29T06:40:56;28.75;;;23.48;;
11681;SDS011;5897;42.640;23.310;2022-12-29T06:43:25;28.05;;;22.80;;
11681;SDS011;5897;42.640;23.310;2022-12-29T06:45:51;29.70;;;23.70;;
11681;SDS011;5897;42.640;23.310;2022-12-29T06:48:18;29.58;;;23.25;;
11681;SDS011;5897;42.640;23.310;2022-12-29T06:50:45;27.10;;;22.25;;
11681;SDS011;5897;42.640;23.310;2022-12-29T06:53:12;30.02;;;22.88;;
11681;SDS011;5897;42.640;23.310;2022-12-29T06:55:38;26.17;;;22.25;;
11681;SDS011;5897;42.640;23.310;2022-12-29T06:58:05;27.88;;;22.90;;
11681;SDS011;5897;42.640;23.310;2022-12-29T07:00:33;29.20;;;22.85;;
11681;SDS011;5897;42.640;23.310;2022-12-29T07:03:00;26.17;;;22.27;;
11681;SDS011;5897;42.640;23.310;2022-12-29T07:05:27;30.67;;;23.42;;
11681;SDS011;5897;42.640;23.310;2022-12-29T07:07:56;27.77;;;22.65;;
11681;SDS011;5897;42.640;23.310;2022-12-29T07:10:23;29.33;;;23.60;;
11681;SDS011;5897;42.640;23.310;2022-12-29T07:12:50;28.20;;;22.52;;
11681;SDS011;5897;42.640;23.310;2022-12-29T07:15:17;26.77;;;22.30;;
11681;SDS011;5897;42.640;23.310;2022-12-29T07:17:45;28.17;;;22.33;;
11681;SDS011;5897;42.640;23.310;2022-12-29T07:20:14;27.75;;;22.13;;
11681;SDS011;5897;42.640;23.310;2022-12-29T07:22:41;30.50;;;24.52;;
11681;SDS011;5897;42.640;23.310;2022-12-29T07:25:08;30.85;;;24.38;;
11681;SDS011;5897;42.640;23.310;2022-12-29T07:27:35;35.88;;;25.65;;
11681;SDS011;5897;42.640;23.310;2022-12-29T07:30:02;37.20;;;26.42;;
11681;SDS011;5897;42.640;23.310;2022-12-29T07:32:31;32.50;;;24.23;;
11681;SDS011;5897;42.640;23.310;2022-12-29T07:35:00;27.45;;;22.00;;
11681;SDS011;5897;42.640;23.310;2022-12-29T07:37:27;28.58;;;23.48;;
11681;SDS011;5897;42.640;23.310;2022-12-29T07:39:54;30.10;;;22.00;;
11681;SDS011;5897;42.640;23.310;2022-12-29T07:42:21;27.90;;;22.23;;
11681;SDS011;5897;42.640;23.310;2022-12-29T07:44:48;28.10;;;22.83;;
11681;SDS011;5897;42.640;23.310;2022-12-29T07:47:14;27.35;;;23.15;;
11681;SDS011;5897;42.640;23.310;2022-12-29T07:49:41;29.65;;;23.52;;
11681;SDS011;5897;42.640;23.310;2022-12-29T07:52:09;32.75;;;23.40;;
11681;SDS011;5897;42.640;23.310;2022-12-29T07:54:36;27.30;;;23.15;;
11681;SDS011;5897;42.640;23.310;2022-12-29T07:57:03;30.00;;;23.35;;
11681;SDS011;5897;42.640;23.310;2022-12-29T07:59:30;29.10;;;23.60;;
11681;SDS011;5897;42.640;23.310;2022-12-29T08:01:57;28.45;;;22.48;;
11681;SDS011;5897;42.640;23.310;2022-12-29T08:04:24;28.10;;;22.55;;
11681;SDS011;5897;42.640;23.310;2022-12-29T08:06:51;30.40;;;24.02;;
11681;SDS011;5897;42.640;23.310;2022-12-29T08:09:19;30.90;;;22.40;;
11681;SDS011;5897;42.640;23.310;2022-12-29T08:11:46;29.52;;;23.73;;
11681;SDS011;5897;42.640;23.310;2022-12-29T08:14:12;27.08;;;22.42;;
11681;SDS011;5897;42.640;23.310;2022-12-29T08:16:39;27.17;;;23.05;;
11681;SDS011;5897;42.640;23.310;2022-12-29T08:19:06;27.60;;;22.23;;
11681;SDS011;5897;42.640;23.310;2022-12-29T08:21:33;27.95;;;22.33;;
11681;SDS011;5897;42.640;23.310;2022-12-29T08:24:00;28.70;;;23.33;;
11681;SDS011;5897;42.640;23.310;2022-12-29T08:26:28;26.50;;;22.02;;
11681;SDS011;5897;42.640;23.310;2022-12-29T08:28:55;29.73;;;23.55;;
11681;SDS011;5897;42.640;23.310;2022-12-29T08:31:22;28.25;;;22.65;;
11681;SDS011;5897;42.640;23.310;2022-12-29T08:33:49;25.70;;;22.38;;
11681;SDS011;5897;42.640;23.310;2022-12-29T08:36:16;32.35;;;25.73;;
11681;SDS011;5897;42.640;23.310;2022-12-29T08:38:43;30.95;;;25.50;;
11681;SDS011;5897;42.640;23.310;2022-12-29T08:41:10;31.00;;;22.80;;
11681;SDS011;5897;42.640;23.310;2022-12-29T08:43:39;31.33;;;26.27;;
11681;SDS011;5897;42.640;23.310;2022-12-29T08:46:05;27.80;;;23.00;;
11681;SDS011;5897;42.640;23.310;2022-12-29T08:48:32;27.50;;;23.00;;
11681;SDS011;5897;42.640;23.310;2022-12-29T08:50:59;28.45;;;23.50;;
11681;SDS011;5897;42.640;23.310;2022-12-29T08:53:26;28.67;;;22.85;;
11681;SDS011;5897;42.640;23.310;2022-12-29T08:55:58;29.33;;;22.70;;
11681;SDS011;5897;42.640;23.310;2022-12-29T08:58:26;32.55;;;24.63;;
11681;SDS011;5897;42.640;23.310;2022-12-29T09:00:55;26.70;;;22.38;;
11681;SDS011;5897;42.640;23.310;2022-12-29T09:03:23;28.88;;;23.00;;
11681;SDS011;5897;42.640;23.310;2022-12-29T09:05:51;30.65;;;23.77;;
11681;SDS011;5897;42.640;23.310;2022-12-29T09:08:19;31.27;;;24.27;;
11681;SDS011;5897;42.640;23.310;2022-12-29T09:10:46;30.40;;;23.58;;
11681;SDS011;5897;42.640;23.310;2022-12-29T09:13:13;27.60;;;23.95;;
11681;SDS011;5897;42.640;23.310;2022-12-29T09:15:40;29.10;;;23.67;;
11681;SDS011;5897;42.640;23.310;2022-12-29T09:18:09;28.63;;;24.10;;
11681;SDS011;5897;42.640;23.310;2022-12-29T09:20:37;27.63;;;24.52;;
11681;SDS011;5897;42.640;23.310;2022-12-29T09:23:04;29.77;;;24.17;;
11681;SDS011;5897;42.640;23.310;2022-12-29T09:25:31;32.72;;;25.55;;
11681;SDS011;5897;42.640;23.310;2022-12-29T09:27:58;29.92;;;23.90;;
11681;SDS011;5897;42.640;23.310;2022-12-29T09:30:25;28.80;;;23.05;;
11681;SDS011;5897;42.640;23.310;2022-12-29T09:32:51;29.90;;;23.00;;
11681;SDS011;5897;42.640;23.310;2022-12-29T09:35:19;30.52;;;24.02;;
11681;SDS011;5897;42.640;23.310;2022-12-29T09:37:46;29.55;;;23.83;;
11681;SDS011;5897;42.640;23.310;2022-12-29T09:40:18;31.35;;;24.48;;
11681;SDS011;5897;42.640;23.310;2022-12-29T09:42:55;28.60;;;23.95;;
11681;SDS011;5897;42.640;23.310;2022-12-29T09:45:40;28.38;;;23.27;;
11681;SDS011;5897;42.640;23.310;2022-12-29T09:48:11;27.92;;;23.35;;
11681;SDS011;5897;42.640;23.310;2022-12-29T09:50:46;27.45;;;24.00;;
11681;SDS011;5897;42.640;23.310;2022-12-29T09:53:17;32.47;;;24.08;;
11681;SDS011;5897;42.640;23.310;2022-12-29T09:55:48;28.50;;;22.55;;
11681;SDS011;5897;42.640;23.310;2022-12-29T09:58:19;27.52;;;24.08;;
11681;SDS011;5897;42.640;23.310;2022-12-29T10:00:52;27.90;;;23.98;;
11681;SDS011;5897;42.640;23.310;2022-12-29T10:03:24;27.42;;;23.77;;
11681;SDS011;5897;42.640;23.310;2022-12-29T10:06:00;26.90;;;23.80;;
11681;SDS011;5897;42.640;23.310;2022-12-29T10:08:33;28.67;;;23.40;;
11681;SDS011;5897;42.640;23.310;2022-12-29T10:11:07;32.85;;;25.25;;
11681;SDS011;5897;42.640;23.310;2022-12-29T10:13:49;32.33;;;25.98;;
11681;SDS011;5897;42.640;23.310;2022-12-29T10:16:26;31.20;;;24.80;;
11681;SDS011;5897;42.640;23.310;2022-12-29T10:19:11;33.05;;;25.70;;
11681;SDS011;5897;42.640;23.310;2022-12-29T10:21:57;28.55;;;24.90;;
11681;SDS011;5897;42.640;23.310;2022-12-29T10:24:34;32.80;;;25.42;;
11681;SDS011;5897;42.640;23.310;2022-12-29T10:27:03;28.92;;;25.25;;
11681;SDS011;5897;42.640;23.310;2022-12-29T10:29:37;30.10;;;24.38;;
11681;SDS011;5897;42.640;23.310;2022-12-29T10:32:10;31.83;;;24.70;;
11681;SDS011;5897;42.640;23.310;2022-12-29T10:34:49;30.00;;;25.05;;
11681;SDS011;5897;42.640;23.310;2022-12-29T10:37:24;28.38;;;25.20;;
11681;SDS011;5897;42.640;23.310;2022-12-29T10:39:57;33.05;;;26.02;;
11681;SDS011;5897;42.640;23.310;2022-12-29T10:42:26;29.58;;;26.08;;
11681;SDS011;5897;42.640;23.310;2022-12-29T10:44:54;33.75;;;25.98;;
11681;SDS011;5897;42.640;23.310;2022-12-29T10:47:23;33.05;;;25.60;;
11681;SDS011;5897;42.640;23.310;2022-12-29T10:49:52;28.40;;;25.05;;
11681;SDS011;5897;42.640;23.310;2022-12-29T10:52:20;29.95;;;25.10;;
11681;SDS011;5897;42.640;23.310;2022-12-29T10:54:51;32.58;;;26.20;;
11681;SDS011;5897;42.640;23.310;2022-12-29T10:57:24;29.55;;;25.23;;
11681;SDS011;5897;42.640;23.310;2022-12-29T10:59:54;29.73;;;24.88;;
11681;SDS011;5897;42.640;23.310;2022-12-29T11:02:38;33.05;;;24.55;;
11681;SDS011;5897;42.640;23.310;2022-12-29T11:05:27;28.80;;;24.98;;
11681;SDS011;5897;42.640;23.310;2022-12-29T11:08:04;30.65;;;23.50;;
11681;SDS011;5897;42.640;23.310;2022-12-29T11:10:37;31.20;;;23.73;;
11681;SDS011;5897;42.640;23.310;2022-12-29T11:13:10;29.75;;;23.48;;
11681;SDS011;5897;42.640;23.310;2022-12-29T11:15:40;32.75;;;24.50;;
11681;SDS011;5897;42.640;23.310;2022-12-29T11:18:18;36.47;;;25.10;;
11681;SDS011;5897;42.640;23.310;2022-12-29T11:20:48;32.58;;;24.17;;
11681;SDS011;5897;42.640;23.310;2022-12-29T11:23:24;31.05;;;23.98;;
11681;SDS011;5897;42.640;23.310;2022-12-29T11:26:07;29.40;;;24.48;;
11681;SDS011;5897;42.640;23.310;2022-12-29T11:28:39;28.55;;;23.20;;
11681;SDS011;5897;42.640;23.310;2022-12-29T11:31:08;30.45;;;24.25;;
11681;SDS011;5897;42.640;23.310;2022-12-29T11:33:36;27.77;;;23.13;;
11681;SDS011;5897;42.640;23.310;2022-12-29T11:36:05;28.85;;;23.27;;
11681;SDS011;5897;42.640;23.310;2022-12-29T11:38:36;30.48;;;24.55;;
11681;SDS011;5897;42.640;23.310;2022-12-29T11:41:05;28.73;;;23.40;;
11681;SDS011;5897;42.640;23.310;2022-12-29T11:43:37;30.50;;;23.13;;
11681;SDS011;5897;42.640;23.310;2022-12-29T11:46:06;29.08;;;23.75;;
11681;SDS011;5897;42.640;23.310;2022-12-29T11:48:38;29.65;;;23.20;;
11681;SDS011;5897;42.640;23.310;2022-12-29T11:51:06;30.92;;;23.27;;
11681;SDS011;5897;42.640;23.310;2022-12-29T11:53:37;29.50;;;23.88;;
11681;SDS011;5897;42.640;23.310;2022-12-29T11:56:09;28.85;;;23.23;;
11681;SDS011;5897;42.640;23.310;2022-12-29T11:58:41;28.05;;;22.90;;
11681;SDS011;5897;42.640;23.310;2022-12-29T12:01:11;26.88;;;23.17;;
11681;SDS011;5897;42.640;23.310;2022-12-29T12:03:44;26.20;;;23.40;;
11681;SDS011;5897;42.640;23.310;2022-12-29T12:06:19;30.80;;;22.55;;
11681;SDS011;5897;42.640;23.310;2022-12-29T12:08:51;27.77;;;23.70;;
11681;SDS011;5897;42.640;23.310;2022-12-29T12:11:22;27.45;;;22.27;;
11681;SDS011;5897;42.640;23.310;2022-12-29T12:13:55;27.02;;;23.13;;
11681;SDS011;5897;42.640;23.310;2022-12-29T12:16:27;26.27;;;22.70;;
11681;SDS011;5897;42.640;23.310;2022-12-29T12:18:58;25.45;;;22.02;;
11681;SDS011;5897;42.640;23.310;2022-12-29T12:21:30;29.52;;;24.08;;
11681;SDS011;5897;42.640;23.310;2022-12-29T12:24:10;29.05;;;23.90;;
11681;SDS011;5897;42.640;23.310;2022-12-29T12:26:55;28.92;;;24.48;;
11681;SDS011;5897;42.640;23.310;2022-12-29T12:29:29;29.73;;;23.90;;
11681;SDS011;5897;42.640;23.310;2022-12-29T12:32:04;29.92;;;23.25;;
11681;SDS011;5897;42.640;23.310;2022-12-29T12:34:38;27.75;;;22.63;;
11681;SDS011;5897;42.640;23.310;2022-12-29T12:40:25;30.77;;;22.88;;
11681;SDS011;5897;42.640;23.310;2022-12-29T12:43:25;28.38;;;22.95;;
11681;SDS011;5897;42.640;23.310;2022-12-29T12:46:07;27.58;;;23.58;;
11681;SDS011;5897;42.640;23.310;2022-12-29T12:48:47;29.67;;;22.75;;
11681;SDS011;5897;42.640;23.310;2022-12-29T12:51:29;27.27;;;23.17;;
11681;SDS011;5897;42.640;23.310;2022-12-29T12:54:07;29.75;;;23.65;;
11681;SDS011;5897;42.640;23.310;2022-12-29T12:56:50;29.80;;;24.25;;
11681;SDS011;5897;42.640;23.310;2022-12-29T12:59:30;27.92;;;23.08;;
11681;SDS011;5897;42.640;23.310;2022-12-29T13:02:09;31.00;;;24.38;;
11681;SDS011;5897;42.640;23.310;2022-12-29T13:04:48;34.38;;;26.88;;
11681;SDS011;5897;42.640;23.310;2022-12-29T13:07:37;34.58;;;28.00;;
11681;SDS011;5897;42.640;23.310;2022-12-29T13:10:19;33.17;;;27.98;;
11681;SDS011;5897;42.640;23.310;2022-12-29T13:12:59;35.58;;;27.90;;
11681;SDS011;5897;42.640;23.310;2022-12-29T13:15:44;34.60;;;27.33;;
11681;SDS011;5897;42.640;23.310;2022-12-29T13:18:22;38.25;;;28.13;;
11681;SDS011;5897;42.640;23.310;2022-12-29T13:20:55;34.45;;;27.38;;
11681;SDS011;5897;42.640;23.310;2022-12-29T13:23:32;36.38;;;28.30;;
11681;SDS011;5897;42.640;23.310;2022-12-29T13:26:05;32.42;;;26.90;;
11681;SDS011;5897;42.640;23.310;2022-12-29T13:28:45;39.17;;;29.23;;
11681;SDS011;5897;42.640;23.310;2022-12-29T13:31:20;39.95;;;31.40;;
11681;SDS011;5897;42.640;23.310;2022-12-29T13:33:58;42.53;;;32.75;;
11681;SDS011;5897;42.640;23.310;2022-12-29T13:36:31;41.42;;;31.40;;
11681;SDS011;5897;42.640;23.310;2022-12-29T13:39:05;41.80;;;30.35;;
11681;SDS011;5897;42.640;23.310;2022-12-29T13:41:38;38.72;;;29.08;;
11681;SDS011;5897;42.640;23.310;2022-12-29T13:44:11;38.72;;;30.17;;
11681;SDS011;5897;42.640;23.310;2022-12-29T13:46:44;36.63;;;27.60;;
11681;SDS011;5897;42.640;23.310;2022-12-29T13:49:13;40.88;;;28.27;;
11681;SDS011;5897;42.640;23.310;2022-12-29T13:51:43;47.33;;;35.65;;
11681;SDS011;5897;42.640;23.310;2022-12-29T13:54:17;37.00;;;31.40;;
11681;SDS011;5897;42.640;23.310;2022-12-29T13:56:59;38.65;;;29.55;;
11681;SDS011;5897;42.640;23.310;2022-12-29T13:59:37;34.53;;;26.55;;
11681;SDS011;5897;42.640;23.310;2022-12-29T14:02:17;38.20;;;27.50;;
11681;SDS011;5897;42.640;23.310;2022-12-29T14:04:57;43.13;;;30.38;;
11681;SDS011;5897;42.640;23.310;2022-12-29T14:07:25;39.95;;;26.95;;
11681;SDS011;5897;42.640;23.310;2022-12-29T14:09:53;38.78;;;26.77;;
11681;SDS011;5897;42.640;23.310;2022-12-29T14:12:23;36.80;;;24.20;;
11681;SDS011;5897;42.640;23.310;2022-12-29T14:15:03;42.00;;;27.98;;
11681;SDS011;5897;42.640;23.310;2022-12-29T14:17:33;39.58;;;28.52;;
11681;SDS011;5897;42.640;23.310;2022-12-29T14:20:00;45.80;;;32.40;;
11681;SDS011;5897;42.640;23.310;2022-12-29T14:22:28;41.50;;;28.90;;
11681;SDS011;5897;42.640;23.310;2022-12-29T14:24:55;44.00;;;31.27;;
11681;SDS011;5897;42.640;23.310;2022-12-29T14:30:47;40.58;;;28.73;;
11681;SDS011;5897;42.640;23.310;2022-12-29T14:33:18;36.30;;;28.52;;
11681;SDS011;5897;42.640;23.310;2022-12-29T14:35:47;39.25;;;29.58;;
11681;SDS011;5897;42.640;23.310;2022-12-29T14:38:24;40.15;;;28.42;;
11681;SDS011;5897;42.640;23.310;2022-12-29T14:41:14;37.25;;;27.95;;
11681;SDS011;5897;42.640;23.310;2022-12-29T14:43:59;41.03;;;28.52;;
11681;SDS011;5897;42.640;23.310;2022-12-29T14:46:46;52.45;;;27.20;;
11681;SDS011;5897;42.640;23.310;2022-12-29T14:49:21;42.13;;;26.80;;
11681;SDS011;5897;42.640;23.310;2022-12-29T14:51:50;41.28;;;27.00;;
11681;SDS011;5897;42.640;23.310;2022-12-29T14:57:13;43.35;;;30.27;;
11681;SDS011;5897;42.640;23.310;2022-12-29T14:59:45;48.90;;;32.58;;
11681;SDS011;5897;42.640;23.310;2022-12-29T15:02:16;45.08;;;32.63;;